createdAt,value
2023-11-23T00:01:09.416Z,-2.84
2023-11-23T00:03:47.698Z,-2.82
2023-11-23T00:06:37.945Z,-2.82
2023-11-23T00:09:19.933Z,-2.84
2023-11-23T00:12:02.647Z,-2.86
2023-11-23T00:14:35.622Z,-2.82
2023-11-23T00:17:05.297Z,-2.80
2023-11-23T00:19:38.276Z,-2.80
2023-11-23T00:22:20.081Z,-2.81
2023-11-23T00:25:03.738Z,-2.81
2023-11-23T00:27:43.166Z,-2.83
2023-11-23T00:30:27.129Z,-2.85
2023-11-23T00:33:10.100Z,-2.79
2023-11-23T00:35:48.361Z,-2.76
2023-11-23T00:38:24.582Z,-2.75
2023-11-23T00:41:20.648Z,-2.78
2023-11-23T00:43:59.604Z,-2.79
2023-11-23T00:46:29.041Z,-2.77
2023-11-23T00:48:56.947Z,-2.74
2023-11-23T00:51:26.918Z,-2.72
2023-11-23T00:56:48.543Z,-2.73
2023-11-23T00:59:16.376Z,-2.78
2023-11-23T01:01:47.979Z,-2.81
2023-11-23T01:04:34.124Z,-2.81
2023-11-23T01:07:06.058Z,-2.81
2023-11-23T01:09:47.747Z,-2.78
2023-11-23T01:12:28.780Z,-2.78
2023-11-23T01:15:05.148Z,-2.83
2023-11-23T01:17:35.779Z,-2.84
2023-11-23T01:20:28.210Z,-2.82
2023-11-23T01:23:00.860Z,-2.79
2023-11-23T01:25:39.202Z,-2.77
2023-11-23T01:28:20.824Z,-2.73
2023-11-23T01:31:08.629Z,-2.76
2023-11-23T01:34:02.093Z,-2.76
2023-11-23T01:36:43.610Z,-2.75
2023-11-23T01:39:11.245Z,-2.76
2023-11-23T01:41:39.862Z,-2.76
2023-11-23T01:44:20.463Z,-2.76
2023-11-23T01:47:04.262Z,-2.73
2023-11-23T01:49:37.847Z,-2.73
2023-11-23T01:52:05.771Z,-2.72
2023-11-23T01:54:40.028Z,-2.74
2023-11-23T01:57:16.474Z,-2.73
2023-11-23T01:59:54.960Z,-2.73
2023-11-23T02:02:24.795Z,-2.72
2023-11-23T02:05:11.396Z,-2.73
2023-11-23T02:13:35.416Z,-2.76
2023-11-23T02:16:02.897Z,-2.83
2023-11-23T02:18:29.561Z,-2.87
2023-11-23T02:20:59.538Z,-2.87
2023-11-23T02:26:32.123Z,-2.98
2023-11-23T02:28:59.550Z,-3.02
2023-11-23T02:31:26.114Z,-3.07
2023-11-23T02:33:55.054Z,-3.08
2023-11-23T02:36:22.768Z,-3.10
2023-11-23T02:38:49.478Z,-3.12
2023-11-23T02:41:18.082Z,-3.16
2023-11-23T02:43:45.771Z,-3.17
2023-11-23T02:46:12.727Z,-3.18
2023-11-23T02:48:39.746Z,-3.15
2023-11-23T02:51:06.710Z,-3.14
2023-11-23T02:53:43.458Z,-3.14
2023-11-23T02:56:11.027Z,-3.14
2023-11-23T02:58:40.680Z,-3.14
2023-11-23T03:01:07.149Z,-3.14
2023-11-23T03:03:33.795Z,-3.17
2023-11-23T03:06:00.409Z,-3.19
2023-11-23T03:08:28.130Z,-3.16
2023-11-23T03:10:57.258Z,-3.16
2023-11-23T03:13:25.540Z,-3.17
2023-11-23T03:15:52.293Z,-3.18
2023-11-23T03:18:18.779Z,-3.23
2023-11-23T03:20:49.457Z,-3.25
2023-11-23T03:23:24.265Z,-3.29
2023-11-23T03:25:55.177Z,-3.31
2023-11-23T03:28:22.978Z,-3.34
2023-11-23T03:30:51.404Z,-3.32
2023-11-23T03:33:18.438Z,-3.30
2023-11-23T03:35:44.965Z,-3.25
2023-11-23T03:38:13.229Z,-3.22
2023-11-23T03:40:41.839Z,-3.25
2023-11-23T03:43:08.447Z,-3.25
2023-11-23T03:45:36.182Z,-3.26
2023-11-23T03:48:04.105Z,-3.29
2023-11-23T03:50:30.725Z,-3.30
2023-11-23T03:52:57.181Z,-3.33
2023-11-23T03:55:23.654Z,-3.33
2023-11-23T03:57:50.773Z,-3.36
2023-11-23T04:00:17.387Z,-3.37
2023-11-23T04:02:44.446Z,-3.38
2023-11-23T04:05:12.713Z,-3.38
2023-11-23T04:07:39.275Z,-3.38
2023-11-23T04:10:07.709Z,-3.36
2023-11-23T04:12:34.722Z,-3.34
2023-11-23T04:15:01.670Z,-3.30
2023-11-23T04:17:28.130Z,-3.28
2023-11-23T04:19:55.629Z,-3.26
2023-11-23T04:22:25.361Z,-3.23
2023-11-23T04:24:52.957Z,-3.21
2023-11-23T04:27:20.196Z,-3.20
2023-11-23T04:29:49.806Z,-3.18
2023-11-23T04:32:16.243Z,-3.15
2023-11-23T04:34:47.295Z,-3.13
2023-11-23T04:37:14.574Z,-3.10
2023-11-23T04:39:41.149Z,-3.06
2023-11-23T04:42:08.058Z,-3.05
2023-11-23T04:44:34.429Z,-3.03
2023-11-23T04:47:00.884Z,-3.00
2023-11-23T04:49:27.365Z,-2.97
2023-11-23T04:51:54.378Z,-2.95
2023-11-23T04:54:20.902Z,-2.93
2023-11-23T04:56:55.200Z,-2.90
2023-11-23T04:59:21.871Z,-2.86
2023-11-23T05:01:48.355Z,-2.84
2023-11-23T05:04:14.814Z,-2.83
2023-11-23T05:06:41.769Z,-2.82
2023-11-23T05:09:09.076Z,-2.82
2023-11-23T05:11:38.928Z,-2.81
2023-11-23T05:14:06.625Z,-2.80
2023-11-23T05:16:33.115Z,-2.79
2023-11-23T05:19:00.901Z,-2.76
2023-11-23T05:21:27.541Z,-2.74
2023-11-23T05:23:53.941Z,-2.71
2023-11-23T05:26:20.374Z,-2.69
2023-11-23T05:28:47.777Z,-2.66
2023-11-23T05:31:14.291Z,-2.63
2023-11-23T05:33:40.867Z,-2.60
2023-11-23T05:36:10.571Z,-2.58
2023-11-23T05:38:36.956Z,-2.57
2023-11-23T05:41:07.770Z,-2.55
2023-11-23T05:43:34.084Z,-2.53
2023-11-23T05:46:01.625Z,-2.52
2023-11-23T05:48:29.979Z,-2.53
2023-11-23T05:50:59.074Z,-2.52
2023-11-23T05:53:25.533Z,-2.49
2023-11-23T05:55:53.837Z,-2.45
2023-11-23T05:58:20.263Z,-2.44
2023-11-23T06:00:50.239Z,-2.41
2023-11-23T06:03:17.619Z,-2.39
2023-11-23T06:05:44.074Z,-2.39
2023-11-23T06:08:10.372Z,-2.39
2023-11-23T06:10:37.970Z,-2.38
2023-11-23T06:13:08.502Z,-2.36
2023-11-23T06:15:35.218Z,-2.35
2023-11-23T06:18:07.669Z,-2.34
2023-11-23T06:20:40.187Z,-2.32
2023-11-23T06:23:08.783Z,-2.30
2023-11-23T06:25:35.199Z,-2.27
2023-11-23T06:28:12.187Z,-2.25
2023-11-23T06:30:44.324Z,-2.23
2023-11-23T06:33:12.088Z,-2.21
2023-11-23T06:35:38.659Z,-2.18
2023-11-23T06:38:05.238Z,-2.16
2023-11-23T06:40:31.615Z,-2.14
2023-11-23T06:42:59.048Z,-2.11
2023-11-23T06:45:26.233Z,-2.08
2023-11-23T06:47:53.394Z,-2.05
2023-11-23T06:50:21.340Z,-2.03
2023-11-23T06:52:47.701Z,-1.99
2023-11-23T06:55:18.716Z,-1.98
2023-11-23T06:57:48.841Z,-1.94
2023-11-23T07:00:23.124Z,-1.90
2023-11-23T07:02:51.287Z,-1.87
2023-11-23T07:05:19.964Z,-1.83
2023-11-23T07:07:48.079Z,-1.77
2023-11-23T07:10:16.904Z,-1.73
2023-11-23T07:12:45.099Z,-1.67
2023-11-23T07:15:12.835Z,-1.62
2023-11-23T07:17:39.254Z,-1.56
2023-11-23T07:20:05.889Z,-1.50
2023-11-23T07:22:36.427Z,-1.43
2023-11-23T07:25:03.390Z,-1.38
2023-11-23T07:27:29.917Z,-1.33
2023-11-23T07:29:56.337Z,-1.27
2023-11-23T07:32:24.072Z,-1.22
2023-11-23T07:34:51.624Z,-1.15
2023-11-23T07:37:20.181Z,-1.08
2023-11-23T07:39:47.822Z,-1.02
2023-11-23T07:42:17.235Z,-0.96
2023-11-23T07:44:44.847Z,-0.89
2023-11-23T07:47:14.272Z,-0.82
2023-11-23T07:49:41.673Z,-0.73
2023-11-23T07:52:08.109Z,-0.66
2023-11-23T07:54:34.489Z,-0.55
2023-11-23T07:57:01.108Z,-0.47
2023-11-23T07:59:28.563Z,-0.38
2023-11-23T08:01:56.212Z,-0.30
2023-11-23T08:04:24.701Z,-0.20
2023-11-23T08:06:53.066Z,-0.10
2023-11-23T08:09:20.999Z,-0.03
2023-11-23T08:11:53.516Z,0.03
2023-11-23T08:14:19.885Z,0.09
2023-11-23T08:16:49.520Z,0.12
2023-11-23T08:19:18.026Z,0.13
2023-11-23T08:21:54.285Z,0.16
2023-11-23T08:24:21.428Z,0.19
2023-11-23T08:26:49.960Z,0.23
2023-11-23T08:29:20.019Z,0.29
2023-11-23T08:31:48.938Z,0.33
2023-11-23T08:34:17.433Z,0.37
2023-11-23T08:36:44.424Z,0.41
2023-11-23T08:39:15.002Z,0.44
2023-11-23T08:41:42.019Z,0.45
2023-11-23T08:44:11.121Z,0.47
2023-11-23T08:46:39.045Z,0.51
2023-11-23T08:49:11.517Z,0.54
2023-11-23T08:51:38.356Z,0.56
2023-11-23T08:54:09.283Z,0.59
2023-11-23T08:56:41.306Z,0.59
2023-11-23T08:59:08.210Z,0.59
2023-11-23T09:01:37.068Z,0.60
2023-11-23T09:04:05.041Z,0.62
2023-11-23T09:06:32.847Z,0.63
2023-11-23T09:09:01.118Z,0.60
2023-11-23T09:11:29.750Z,0.58
2023-11-23T09:13:56.690Z,0.54
2023-11-23T09:16:26.061Z,0.51
2023-11-23T09:18:56.642Z,0.49
2023-11-23T09:21:30.871Z,0.51
2023-11-23T09:23:59.026Z,0.53
2023-11-23T09:26:26.458Z,0.54
2023-11-23T09:28:52.942Z,0.57
2023-11-23T09:31:20.381Z,0.59
2023-11-23T09:33:47.666Z,0.63
2023-11-23T09:36:15.089Z,0.65
2023-11-23T09:38:42.823Z,0.69
2023-11-23T09:41:10.073Z,0.73
2023-11-23T09:43:36.937Z,0.80
2023-11-23T09:46:04.256Z,0.89
2023-11-23T09:48:30.863Z,0.99
2023-11-23T09:51:00.835Z,1.11
2023-11-23T09:53:27.943Z,1.23
2023-11-23T09:55:57.222Z,1.33
2023-11-23T09:58:25.011Z,1.41
2023-11-23T10:00:51.772Z,1.47
2023-11-23T10:03:20.260Z,1.54
2023-11-23T10:05:51.541Z,1.60
2023-11-23T10:08:21.604Z,1.66
2023-11-23T10:10:50.426Z,1.69
2023-11-23T10:13:17.174Z,1.71
2023-11-23T10:15:44.872Z,1.73
2023-11-23T10:18:12.645Z,1.74
2023-11-23T10:20:40.673Z,1.75
2023-11-23T10:23:07.293Z,1.77
2023-11-23T10:25:36.220Z,1.79
2023-11-23T10:28:06.441Z,1.81
2023-11-23T10:30:35.733Z,1.83
2023-11-23T10:33:05.228Z,1.86
2023-11-23T10:35:32.464Z,1.93
2023-11-23T10:38:00.827Z,1.98
2023-11-23T10:40:30.680Z,2.04
2023-11-23T10:42:57.164Z,2.11
2023-11-23T10:45:25.766Z,2.18
2023-11-23T10:47:52.600Z,2.26
2023-11-23T10:50:19.442Z,2.36
2023-11-23T10:52:45.926Z,2.40
2023-11-23T10:55:14.026Z,2.42
2023-11-23T10:57:40.573Z,2.45
2023-11-23T11:00:12.358Z,2.55
2023-11-23T11:02:39.464Z,2.69
2023-11-23T11:05:06.789Z,2.63
2023-11-23T11:07:33.209Z,2.59
2023-11-23T11:09:59.851Z,2.56
2023-11-23T11:12:26.491Z,2.53
2023-11-23T11:14:54.600Z,2.46
2023-11-23T11:17:22.035Z,2.41
2023-11-23T11:19:49.465Z,2.37
2023-11-23T11:22:16.796Z,2.36
2023-11-23T11:24:45.624Z,2.36
2023-11-23T11:27:13.260Z,2.37
2023-11-23T11:29:39.624Z,2.38
2023-11-23T11:32:06.758Z,2.39
2023-11-23T11:34:33.238Z,2.40
2023-11-23T11:37:00.234Z,2.42
2023-11-23T11:39:29.607Z,2.45
2023-11-23T11:41:59.926Z,2.61
2023-11-23T11:44:26.781Z,2.58
2023-11-23T11:46:53.417Z,2.54
2023-11-23T11:49:22.451Z,2.54
2023-11-23T11:51:49.021Z,2.53
2023-11-23T11:54:16.939Z,2.56
2023-11-23T11:56:44.706Z,2.57
2023-11-23T11:59:14.683Z,2.59
2023-11-23T12:01:41.983Z,2.61
2023-11-23T12:04:08.945Z,2.62
2023-11-23T12:06:35.907Z,2.64
2023-11-23T12:09:02.899Z,2.67
2023-11-23T12:11:32.031Z,2.69
2023-11-23T12:14:00.011Z,2.71
2023-11-23T12:16:26.453Z,2.74
2023-11-23T12:18:59.408Z,2.77
2023-11-23T12:21:25.704Z,2.83
2023-11-23T12:23:54.273Z,2.88
2023-11-23T12:26:21.136Z,2.90
2023-11-23T12:28:48.073Z,2.93
2023-11-23T12:31:14.842Z,2.97
2023-11-23T12:33:43.646Z,3.01
2023-11-23T12:36:10.176Z,3.06
2023-11-23T12:38:37.045Z,3.09
2023-11-23T12:41:04.137Z,3.12
2023-11-23T12:43:30.511Z,3.15
2023-11-23T12:45:56.998Z,3.19
2023-11-23T12:48:24.001Z,3.22
2023-11-23T12:50:50.577Z,3.25
2023-11-23T12:53:18.840Z,3.29
2023-11-23T12:55:45.309Z,3.30
2023-11-23T12:58:13.018Z,3.33
2023-11-23T13:00:39.592Z,3.35
2023-11-23T13:03:06.183Z,3.38
2023-11-23T13:05:33.832Z,3.40
2023-11-23T13:08:01.047Z,3.41
2023-11-23T13:10:28.069Z,3.40
2023-11-23T13:12:56.939Z,3.41
2023-11-23T13:15:25.138Z,3.42
2023-11-23T13:17:53.875Z,3.44
2023-11-23T13:20:22.261Z,3.46
2023-11-23T13:22:48.919Z,3.46
2023-11-23T13:25:17.649Z,3.48
2023-11-23T13:27:44.112Z,3.47
2023-11-23T13:30:10.826Z,3.47
2023-11-23T13:32:43.993Z,3.48
2023-11-23T13:35:11.280Z,3.47
2023-11-23T13:37:37.817Z,3.42
2023-11-23T13:40:05.913Z,3.37
2023-11-23T13:42:34.481Z,3.31
2023-11-23T13:45:01.380Z,3.23
2023-11-23T13:47:29.140Z,3.16
2023-11-23T13:49:55.970Z,3.11
2023-11-23T13:52:22.667Z,3.06
2023-11-23T13:54:49.641Z,2.99
2023-11-23T13:57:17.917Z,2.94
2023-11-23T13:59:44.367Z,2.87
2023-11-23T14:02:11.379Z,2.80
2023-11-23T14:04:37.877Z,2.76
2023-11-23T14:07:08.646Z,2.71
2023-11-23T14:09:35.182Z,2.67
2023-11-23T14:12:04.321Z,2.64
2023-11-23T14:14:30.734Z,2.62
2023-11-23T14:16:58.763Z,2.61
2023-11-23T14:19:26.793Z,2.60
2023-11-23T14:21:56.246Z,2.58
2023-11-23T14:24:22.926Z,2.56
2023-11-23T14:26:53.678Z,2.53
2023-11-23T14:29:21.194Z,2.50
2023-11-23T14:31:50.384Z,2.50
2023-11-23T14:34:17.099Z,2.53
2023-11-23T14:36:45.074Z,2.52
2023-11-23T14:39:16.786Z,2.52
2023-11-23T14:41:44.993Z,2.52
2023-11-23T14:44:11.743Z,2.53
2023-11-23T14:46:38.146Z,2.53
2023-11-23T14:49:09.616Z,2.56
2023-11-23T14:51:36.347Z,2.57
2023-11-23T14:54:10.612Z,2.60
2023-11-23T14:56:40.050Z,2.62
2023-11-23T14:59:06.851Z,2.66
2023-11-23T15:01:35.852Z,2.68
2023-11-23T15:04:07.094Z,2.71
2023-11-23T15:06:33.577Z,2.74
2023-11-23T15:08:59.855Z,2.80
2023-11-23T15:11:31.804Z,2.82
2023-11-23T15:13:58.254Z,2.88
2023-11-23T15:16:28.463Z,2.91
2023-11-23T15:18:57.019Z,2.97
2023-11-23T15:21:24.664Z,3.00
2023-11-23T15:23:52.314Z,2.99
2023-11-23T15:26:22.524Z,3.03
2023-11-23T15:28:49.634Z,3.05
2023-11-23T15:31:23.334Z,3.07
2023-11-23T15:33:50.341Z,3.08
2023-11-23T15:36:18.347Z,3.08
2023-11-23T15:38:44.668Z,3.07
2023-11-23T15:41:11.585Z,3.08
2023-11-23T15:43:38.775Z,3.07
2023-11-23T15:46:07.771Z,3.07
2023-11-23T15:48:34.940Z,3.07
2023-11-23T15:51:01.351Z,3.08
2023-11-23T15:53:29.005Z,3.07
2023-11-23T15:55:55.374Z,3.06
2023-11-23T15:58:22.984Z,3.02
2023-11-23T16:00:49.424Z,2.99
2023-11-23T16:03:16.076Z,2.98
2023-11-23T16:05:45.253Z,2.97
2023-11-23T16:08:11.677Z,2.94
2023-11-23T16:10:38.763Z,2.89
2023-11-23T16:13:11.449Z,2.85
2023-11-23T16:15:40.589Z,2.81
2023-11-23T16:18:07.120Z,2.76
2023-11-23T16:20:34.042Z,2.75
2023-11-23T16:23:01.863Z,2.74
2023-11-23T16:25:28.445Z,2.72
2023-11-23T16:28:01.519Z,2.73
2023-11-23T16:30:27.930Z,2.76
2023-11-23T16:32:56.493Z,2.77
2023-11-23T16:35:27.319Z,2.78
2023-11-23T16:37:53.580Z,2.79
2023-11-23T16:40:20.338Z,2.80
2023-11-23T16:42:47.568Z,2.83
2023-11-23T16:45:14.190Z,2.84
2023-11-23T16:47:41.622Z,2.88
2023-11-23T16:50:07.902Z,2.91
2023-11-23T16:52:35.580Z,2.94
2023-11-23T16:55:04.727Z,2.98
2023-11-23T16:57:34.030Z,3.00
2023-11-23T17:00:02.262Z,3.03
2023-11-23T17:02:31.001Z,3.05
2023-11-23T17:05:01.625Z,3.05
2023-11-23T17:07:28.512Z,3.08
2023-11-23T17:09:55.228Z,3.10
2023-11-23T17:12:26.777Z,3.11
2023-11-23T17:14:55.732Z,3.12
2023-11-23T17:17:26.500Z,3.17
2023-11-23T17:19:52.884Z,3.19
2023-11-23T17:22:20.062Z,3.22
2023-11-23T17:24:46.396Z,3.21
2023-11-23T17:27:15.062Z,3.23
2023-11-23T17:29:41.536Z,3.24
2023-11-23T17:32:09.003Z,3.25
2023-11-23T17:34:36.240Z,3.25
2023-11-23T17:37:05.121Z,3.25
2023-11-23T17:39:31.609Z,3.26
2023-11-23T17:41:58.300Z,3.27
2023-11-23T17:44:27.212Z,3.26
2023-11-23T17:46:54.324Z,3.26
2023-11-23T17:49:21.226Z,3.25
2023-11-23T17:51:47.898Z,3.25
2023-11-23T17:54:15.375Z,3.24
2023-11-23T17:56:44.635Z,3.22
2023-11-23T17:59:25.464Z,3.20
2023-11-23T18:02:00.545Z,3.20
2023-11-23T18:04:27.588Z,3.22
2023-11-23T18:06:54.860Z,3.31
2023-11-23T18:09:21.786Z,3.32
2023-11-23T18:11:48.119Z,3.31
2023-11-23T18:14:17.202Z,3.32
2023-11-23T18:16:44.455Z,3.34
2023-11-23T18:19:19.840Z,3.37
2023-11-23T18:21:46.165Z,3.42
2023-11-23T18:24:16.090Z,3.43
2023-11-23T18:26:43.073Z,3.44
2023-11-23T18:29:10.721Z,3.44
2023-11-23T18:31:39.539Z,3.47
2023-11-23T18:34:09.961Z,3.48
2023-11-23T18:36:36.341Z,3.50
2023-11-23T18:39:11.947Z,3.49
2023-11-23T18:41:48.588Z,3.49
2023-11-23T18:44:15.477Z,3.51
2023-11-23T18:46:45.095Z,3.53
2023-11-23T18:49:12.067Z,3.53
2023-11-23T18:51:41.003Z,3.56
2023-11-23T18:54:08.292Z,3.57
2023-11-23T18:56:35.770Z,3.58
2023-11-23T18:59:03.959Z,3.59
2023-11-23T19:01:30.473Z,3.61
2023-11-23T19:03:57.874Z,3.64
2023-11-23T19:06:24.546Z,3.64
2023-11-23T19:08:51.380Z,3.66
2023-11-23T19:11:18.596Z,3.67
2023-11-23T19:13:45.106Z,3.68
2023-11-23T19:16:14.255Z,3.68
2023-11-23T19:18:42.597Z,3.69
2023-11-23T19:21:09.237Z,3.71
2023-11-23T19:23:36.490Z,3.73
2023-11-23T19:26:05.989Z,3.72
2023-11-23T19:28:35.034Z,3.74
2023-11-23T19:31:04.280Z,3.74
2023-11-23T19:33:35.921Z,3.74
2023-11-23T19:36:03.161Z,3.74
2023-11-23T19:38:29.785Z,3.76
2023-11-23T19:41:00.576Z,3.75
2023-11-23T19:43:30.126Z,3.77
2023-11-23T19:45:56.912Z,3.78
2023-11-23T19:48:23.739Z,3.78
2023-11-23T19:50:50.467Z,3.79
2023-11-23T19:53:17.156Z,3.80
2023-11-23T19:55:45.556Z,3.80
2023-11-23T19:58:11.994Z,3.79
2023-11-23T20:00:42.774Z,3.79
2023-11-23T20:03:09.312Z,3.78
2023-11-23T20:05:38.664Z,3.80
2023-11-23T20:08:08.968Z,3.80
2023-11-23T20:10:37.745Z,3.83
2023-11-23T20:13:05.456Z,3.84
2023-11-23T20:15:34.808Z,3.85
2023-11-23T20:18:01.201Z,3.85
2023-11-23T20:20:29.177Z,3.86
2023-11-23T20:23:03.510Z,3.86
2023-11-23T20:25:29.969Z,3.85
2023-11-23T20:27:56.487Z,3.85
2023-11-23T20:30:22.873Z,3.85
2023-11-23T20:32:49.789Z,3.84
2023-11-23T20:35:17.099Z,3.85
2023-11-23T20:37:43.546Z,3.86
2023-11-23T20:40:10.271Z,3.86
2023-11-23T20:42:36.708Z,3.86
2023-11-23T20:45:03.603Z,3.86
2023-11-23T20:47:30.680Z,3.87
2023-11-23T20:50:00.368Z,3.88
2023-11-23T20:52:26.809Z,3.89
2023-11-23T20:54:56.964Z,3.88
2023-11-23T20:57:27.858Z,3.88
2023-11-23T20:59:54.549Z,3.91
2023-11-23T21:02:21.502Z,3.94
2023-11-23T21:04:48.945Z,3.96
2023-11-23T21:07:16.595Z,3.97
2023-11-23T21:09:48.471Z,3.99
2023-11-23T21:12:24.591Z,4.01
2023-11-23T21:14:58.870Z,4.01
2023-11-23T21:17:27.706Z,4.02
2023-11-23T21:19:54.068Z,4.03
2023-11-23T21:22:20.791Z,4.04
2023-11-23T21:24:47.367Z,4.05
2023-11-23T21:27:13.805Z,4.07
2023-11-23T21:29:42.646Z,4.09
2023-11-23T21:32:09.085Z,4.11
2023-11-23T21:34:35.790Z,4.11
2023-11-23T21:37:05.982Z,4.10
2023-11-23T21:39:32.778Z,4.12
2023-11-23T21:41:59.174Z,4.13
2023-11-23T21:44:26.159Z,4.13
2023-11-23T21:46:56.197Z,4.14
2023-11-23T21:49:34.290Z,4.14
2023-11-23T21:52:05.468Z,4.14
2023-11-23T21:54:46.917Z,4.14
2023-11-23T21:57:22.610Z,4.14
2023-11-23T21:59:52.021Z,4.14
2023-11-23T22:05:14.769Z,4.13
2023-11-23T22:07:49.574Z,4.13
2023-11-23T22:10:34.830Z,4.12
2023-11-23T22:13:07.462Z,4.11
2023-11-23T22:15:50.375Z,4.10
2023-11-23T22:18:18.288Z,4.09
2023-11-23T22:20:56.358Z,4.07
2023-11-23T22:23:32.359Z,4.05
2023-11-23T22:25:59.094Z,4.04
2023-11-23T22:28:25.452Z,4.04
2023-11-23T22:30:56.714Z,4.03
2023-11-23T22:33:23.436Z,4.03
2023-11-23T22:35:50.146Z,4.03
2023-11-23T22:38:19.832Z,4.02
2023-11-23T22:40:56.580Z,4.01
2023-11-23T22:43:44.169Z,4.01
2023-11-23T22:46:10.814Z,4.01
2023-11-23T22:48:37.421Z,4.00
2023-11-23T22:51:03.674Z,4.01
2023-11-23T22:53:35.993Z,4.01
2023-11-23T22:56:22.623Z,4.04
2023-11-23T22:58:49.608Z,4.05
2023-11-23T23:01:19.323Z,4.05
2023-11-23T23:03:46.625Z,4.05
2023-11-23T23:06:15.477Z,4.05
2023-11-23T23:08:42.609Z,4.05
2023-11-23T23:11:14.977Z,4.06
2023-11-23T23:13:44.529Z,4.07
2023-11-23T23:16:14.789Z,4.08
2023-11-23T23:21:44.995Z,4.08
2023-11-23T23:27:23.456Z,4.08
2023-11-23T23:29:49.950Z,4.07
2023-11-23T23:32:16.910Z,4.05
2023-11-23T23:34:48.236Z,4.05
2023-11-23T23:37:22.251Z,4.07
2023-11-23T23:39:48.713Z,4.08
2023-11-23T23:42:15.247Z,4.08
2023-11-23T23:44:42.587Z,4.07
2023-11-23T23:47:09.419Z,4.05
2023-11-23T23:49:36.707Z,4.04
2023-11-23T23:52:03.562Z,4.02
2023-11-23T23:54:29.956Z,3.99
2023-11-23T23:56:56.477Z,3.95
2023-11-23T23:59:23.182Z,3.89
